Time;durP1;ratioP1;P1;durP2;ratioP2;P2;SDS_P1;SDS_P2;PMS_P1;PMS_P2;Temp;Humidity;BMP_temperature;BMP_pressure;BME280_temperature;BME280_humidity;BME280_pressure;Samples;Min_cycle;Max_cycle;Signal;HPM_P1;HPM_P2
2021/12/06 00:02:07;;;;;;;138.60;54.03;;;;;;;;;;6215494;28;20053;-61
2021/12/06 00:05:08;;;;;;;128.50;54.03;;;;;;;;;;6215701;28;20046;-61
2021/12/06 00:08:09;;;;;;;125.43;52.93;;;;;;;;;;6213419;28;20511;-68
2021/12/06 00:11:11;;;;;;;126.50;51.55;;;;;;;;;;6215361;28;20050;-67
2021/12/06 00:14:11;;;;;;;112.23;51.50;;;;;;;;;;6215962;28;20096;-63
2021/12/06 00:17:14;;;;;;;115.07;49.88;;;;;;;;;;6216260;28;20049;-62
2021/12/06 00:20:15;;;;;;;108.18;48.50;;;;;;;;;;6214905;28;20060;-63
2021/12/06 00:23:16;;;;;;;112.13;50.53;;;;;;;;;;6217078;28;20154;-63
2021/12/06 00:26:17;;;;;;;119.00;48.10;;;;;;;;;;6202011;28;20050;-66
2021/12/06 00:29:18;;;;;;;110.72;49.47;;;;;;;;;;6196067;28;20054;-63
2021/12/06 00:32:19;;;;;;;121.43;51.53;;;;;;;;;;6193901;28;20140;-65
2021/12/06 00:35:23;;;;;;;139.20;55.65;;;;;;;;;;6192001;28;20076;-64
2021/12/06 00:38:24;;;;;;;125.00;54.38;;;;;;;;;;6196816;28;20046;-66
2021/12/06 00:41:25;;;;;;;113.75;52.30;;;;;;;;;;6193307;28;20548;-67
2021/12/06 00:44:25;;;;;;;127.28;54.42;;;;;;;;;;6190047;28;20050;-62
2021/12/06 00:47:27;;;;;;;124.53;53.75;;;;;;;;;;6191675;28;20076;-63
2021/12/06 00:50:31;;;;;;;128.10;56.08;;;;;;;;;;6193279;28;20045;-66
2021/12/06 00:53:32;;;;;;;126.32;54.80;;;;;;;;;;6192623;28;20046;-63
2021/12/06 00:56:33;;;;;;;122.00;52.25;;;;;;;;;;6206545;28;20125;-62
2021/12/06 00:59:35;;;;;;;114.78;49.13;;;;;;;;;;6215230;28;20073;-67
2021/12/06 01:02:36;;;;;;;;;;;;;;;;;;6214145;28;20400;-66
2021/12/06 01:05:37;;;;;;;98.07;42.45;;;;;;;;;;6213397;28;19932;-67
2021/12/06 01:08:38;;;;;;;110.93;44.97;;;;;;;;;;6215020;28;20046;-65
2021/12/06 01:11:39;;;;;;;108.50;45.30;;;;;;;;;;6214504;28;20049;-64
2021/12/06 01:14:40;;;;;;;104.47;44.70;;;;;;;;;;6215596;28;20196;-63
2021/12/06 01:17:41;;;;;;;109.90;47.35;;;;;;;;;;6214339;28;20127;-62
2021/12/06 01:20:50;;;;;;;112.78;48.53;;;;;;;;;;6215178;28;20461;-64
2021/12/06 01:23:56;;;;;;;117.00;49.72;;;;;;;;;;6214798;28;20054;-66
2021/12/06 01:27:40;;;;;;;109.30;47.03;;;;;;;;;;6214119;28;20496;-65
2021/12/06 01:40:31;;;;;;;119.93;51.40;;;;;;;;;;6215299;28;20410;-67
2021/12/06 01:43:32;;;;;;;130.82;55.50;;;;;;;;;;6214655;28;20108;-62
2021/12/06 01:46:35;;;;;;;125.40;54.88;;;;;;;;;;6213957;28;20473;-63
2021/12/06 01:49:42;;;;;;;121.20;52.25;;;;;;;;;;6202664;28;20176;-65
2021/12/06 01:52:52;;;;;;;109.97;48.03;;;;;;;;;;6208387;28;20053;-62
2021/12/06 01:55:53;;;;;;;107.97;47.42;;;;;;;;;;6199971;28;20456;-62
2021/12/06 01:58:54;;;;;;;112.47;48.00;;;;;;;;;;6205820;28;20043;-65
2021/12/06 02:01:56;;;;;;;110.10;47.40;;;;;;;;;;6199871;28;20093;-61
2021/12/06 02:04:57;;;;;;;109.10;45.95;;;;;;;;;;6202059;28;20480;-63
2021/12/06 02:07:58;;;;;;;108.38;45.33;;;;;;;;;;6201873;28;20140;-68
2021/12/06 02:11:02;;;;;;;107.93;45.28;;;;;;;;;;6204551;28;20545;-63
2021/12/06 02:14:19;;;;;;;109.13;45.83;;;;;;;;;;6194380;28;20082;-60
2021/12/06 02:17:27;;;;;;;107.32;46.38;;;;;;;;;;6197231;28;20424;-61
2021/12/06 02:20:29;;;;;;;109.32;46.70;;;;;;;;;;6203533;28;20069;-65
2021/12/06 02:23:30;;;;;;;99.72;43.92;;;;;;;;;;6208833;28;20052;-65
2021/12/06 02:26:31;;;;;;;110.65;46.95;;;;;;;;;;6204824;28;20086;-61
2021/12/06 02:29:31;;;;;;;103.43;44.97;;;;;;;;;;6206301;28;20046;-67
2021/12/06 02:32:34;;;;;;;111.22;46.63;;;;;;;;;;6200903;28;20058;-66
2021/12/06 02:35:35;;;;;;;110.43;44.95;;;;;;;;;;6207509;28;20042;-64
2021/12/06 02:38:36;;;;;;;110.20;44.00;;;;;;;;;;6202222;28;20439;-65
2021/12/06 02:41:37;;;;;;;111.95;47.33;;;;;;;;;;6205825;28;20655;-62
2021/12/06 02:44:38;;;;;;;111.10;46.60;;;;;;;;;;6208447;28;20048;-61
2021/12/06 02:47:40;;;;;;;109.70;42.00;;;;;;;;;;6205299;28;20050;-61
2021/12/06 02:50:48;;;;;;;89.88;32.67;;;;;;;;;;6209741;28;20104;-62
2021/12/06 02:53:49;;;;;;;77.28;30.98;;;;;;;;;;6204131;28;20502;-62
2021/12/06 02:59:54;;;;;;;64.95;23.90;;;;;;;;;;6200658;28;20085;-64
2021/12/06 03:02:55;;;;;;;65.35;23.60;;;;;;;;;;6209937;28;20054;-61
2021/12/06 03:05:56;;;;;;;61.85;23.95;;;;;;;;;;6206257;28;20073;-66
2021/12/06 03:09:12;;;;;;;63.13;23.20;;;;;;;;;;6204078;28;20062;-63
2021/12/06 03:12:17;;;;;;;62.33;23.40;;;;;;;;;;6206903;28;20050;-65
2021/12/06 03:15:18;;;;;;;56.72;23.35;;;;;;;;;;6201842;28;20126;-64
2021/12/06 03:18:19;;;;;;;61.77;25.60;;;;;;;;;;6204867;28;20046;-62
2021/12/06 03:21:21;;;;;;;64.95;25.10;;;;;;;;;;6201435;28;20300;-66
2021/12/06 03:24:22;;;;;;;72.15;27.85;;;;;;;;;;6204393;28;20054;-64
2021/12/06 03:27:23;;;;;;;69.63;25.08;;;;;;;;;;6204568;28;20076;-61
2021/12/06 03:30:23;;;;;;;63.40;24.80;;;;;;;;;;6203042;28;20401;-62
2021/12/06 03:33:24;;;;;;;70.35;23.65;;;;;;;;;;6205563;28;20124;-61
2021/12/06 03:36:29;;;;;;;65.95;23.02;;;;;;;;;;6204790;28;20055;-65
2021/12/06 03:39:35;;;;;;;67.05;24.77;;;;;;;;;;6205822;28;20054;-66
2021/12/06 03:42:36;;;;;;;71.07;24.73;;;;;;;;;;6207809;28;20447;-62
2021/12/06 03:45:37;;;;;;;75.13;26.38;;;;;;;;;;6208566;28;20159;-61
2021/12/06 03:48:38;;;;;;;66.47;24.13;;;;;;;;;;6205965;28;20065;-67
2021/12/06 03:51:39;;;;;;;66.07;25.88;;;;;;;;;;6203097;28;20049;-61
2021/12/06 03:54:41;;;;;;;71.82;26.15;;;;;;;;;;6207409;28;20050;-65
2021/12/06 03:57:42;;;;;;;62.67;21.70;;;;;;;;;;6204785;28;20081;-65
2021/12/06 04:00:43;;;;;;;65.90;22.08;;;;;;;;;;6201366;28;20083;-60
2021/12/06 04:03:44;;;;;;;60.33;21.38;;;;;;;;;;6206619;28;20042;-60
2021/12/06 04:06:44;;;;;;;56.08;18.67;;;;;;;;;;6205960;28;20048;-62
2021/12/06 04:09:45;;;;;;;59.22;20.27;;;;;;;;;;6199496;28;20049;-61
2021/12/06 04:12:46;;;;;;;50.20;17.90;;;;;;;;;;6204776;28;20050;-60
2021/12/06 04:15:47;;;;;;;54.67;19.65;;;;;;;;;;6205111;28;20657;-67
2021/12/06 04:18:49;;;;;;;57.33;20.17;;;;;;;;;;6203264;28;20074;-67
2021/12/06 04:21:50;;;;;;;;;;;;;;;;;;6201009;28;20048;-61
2021/12/06 04:24:51;;;;;;;55.40;18.38;;;;;;;;;;6204667;28;20021;-66
2021/12/06 04:27:55;;;;;;;50.38;17.75;;;;;;;;;;6203611;28;20069;-63
2021/12/06 04:30:57;;;;;;;49.55;17.90;;;;;;;;;;6202644;28;20101;-60
2021/12/06 04:33:58;;;;;;;47.63;18.17;;;;;;;;;;6209556;28;20128;-60
2021/12/06 04:36:59;;;;;;;48.95;17.55;;;;;;;;;;6207496;28;20057;-62
2021/12/06 04:40:00;;;;;;;58.20;19.92;;;;;;;;;;6216909;28;20421;-61
2021/12/06 04:43:02;;;;;;;47.97;18.00;;;;;;;;;;6209979;28;20054;-61
2021/12/06 04:46:03;;;;;;;46.50;16.60;;;;;;;;;;6210813;28;20091;-63
2021/12/06 04:49:06;;;;;;;38.83;16.10;;;;;;;;;;6205788;28;20050;-61
2021/12/06 04:52:10;;;;;;;44.45;15.77;;;;;;;;;;6202173;28;20045;-62
2021/12/06 04:55:23;;;;;;;35.70;13.88;;;;;;;;;;6201532;28;20121;-63
2021/12/06 04:58:29;;;;;;;35.25;14.10;;;;;;;;;;6199721;28;20100;-63
2021/12/06 05:01:31;;;;;;;35.80;15.55;;;;;;;;;;6206771;28;20045;-61
2021/12/06 05:04:37;;;;;;;34.20;14.57;;;;;;;;;;6205828;28;20060;-64
2021/12/06 05:07:44;;;;;;;29.58;12.60;;;;;;;;;;6203992;28;20049;-61
2021/12/06 05:10:45;;;;;;;28.55;11.38;;;;;;;;;;6203228;28;20542;-66
2021/12/06 05:13:47;;;;;;;27.85;11.98;;;;;;;;;;6203694;28;20560;-64
2021/12/06 05:16:47;;;;;;;28.27;12.37;;;;;;;;;;6205894;28;20069;-61
2021/12/06 05:19:49;;;;;;;25.70;11.52;;;;;;;;;;6199772;28;20046;-66
2021/12/06 05:22:50;;;;;;;28.57;13.27;;;;;;;;;;6199607;28;20053;-63
2021/12/06 05:25:51;;;;;;;26.63;11.90;;;;;;;;;;6205156;28;20378;-64
2021/12/06 05:28:56;;;;;;;28.65;13.13;;;;;;;;;;6198126;28;20057;-64
2021/12/06 05:31:59;;;;;;;27.70;11.45;;;;;;;;;;6203280;28;20054;-66
2021/12/06 05:35:06;;;;;;;27.10;12.38;;;;;;;;;;6202519;28;20070;-62
2021/12/06 05:38:07;;;;;;;25.95;12.52;;;;;;;;;;6201975;28;20042;-63
2021/12/06 05:41:08;;;;;;;29.02;12.23;;;;;;;;;;6202181;28;20416;-62
2021/12/06 05:44:08;;;;;;;29.75;13.10;;;;;;;;;;6200629;28;20129;-61
2021/12/06 05:47:09;;;;;;;31.15;13.05;;;;;;;;;;6204933;28;20116;-60
2021/12/06 05:50:11;;;;;;;30.15;12.50;;;;;;;;;;6201997;28;20188;-66
2021/12/06 05:53:13;;;;;;;28.10;12.48;;;;;;;;;;6202167;28;20053;-64
2021/12/06 05:56:13;;;;;;;23.73;11.57;;;;;;;;;;6208657;28;20493;-61
2021/12/06 05:59:14;;;;;;;22.35;10.55;;;;;;;;;;6207984;28;20316;-63
2021/12/06 06:02:16;;;;;;;26.45;12.35;;;;;;;;;;6206547;28;20562;-63
2021/12/06 06:05:18;;;;;;;23.23;12.40;;;;;;;;;;6209832;28;20069;-60
2021/12/06 06:08:19;;;;;;;26.02;12.65;;;;;;;;;;6203265;28;20050;-66
2021/12/06 06:11:20;;;;;;;28.27;12.10;;;;;;;;;;6210025;28;20049;-61
2021/12/06 06:14:20;;;;;;;30.08;13.40;;;;;;;;;;6207187;28;20616;-61
2021/12/06 06:17:21;;;;;;;29.02;13.80;;;;;;;;;;6209038;28;20045;-62
2021/12/06 06:20:27;;;;;;;29.48;13.85;;;;;;;;;;6209243;28;20522;-61
2021/12/06 06:23:28;;;;;;;32.13;13.48;;;;;;;;;;6204654;28;20136;-64
2021/12/06 06:26:29;;;;;;;30.88;13.60;;;;;;;;;;6204916;28;20543;-63
2021/12/06 06:29:31;;;;;;;31.67;13.75;;;;;;;;;;6208420;28;20054;-63
2021/12/06 06:32:32;;;;;;;30.67;14.43;;;;;;;;;;6204232;28;20045;-61
2021/12/06 06:35:33;;;;;;;27.02;12.50;;;;;;;;;;6203312;28;20353;-61
2021/12/06 06:38:33;;;;;;;29.02;12.55;;;;;;;;;;6206443;28;20076;-62
2021/12/06 06:41:35;;;;;;;28.23;12.85;;;;;;;;;;6208042;28;20572;-67
2021/12/06 06:44:35;;;;;;;24.73;12.63;;;;;;;;;;6205540;28;20045;-62
2021/12/06 06:47:36;;;;;;;32.75;15.25;;;;;;;;;;6202572;28;20461;-62
2021/12/06 06:50:37;;;;;;;48.97;20.48;;;;;;;;;;6205054;28;20132;-66
2021/12/06 06:53:37;;;;;;;58.13;24.88;;;;;;;;;;6205177;28;20056;-61
2021/12/06 06:56:38;;;;;;;56.40;24.48;;;;;;;;;;6207564;28;20060;-61
2021/12/06 06:59:39;;;;;;;40.05;17.25;;;;;;;;;;6215821;28;20548;-62
2021/12/06 07:02:41;;;;;;;40.83;16.02;;;;;;;;;;6209501;28;20123;-61
2021/12/06 07:05:42;;;;;;;39.45;18.58;;;;;;;;;;6197245;28;20116;-57
2021/12/06 07:08:43;;;;;;;37.67;17.10;;;;;;;;;;6216549;28;20050;-60
2021/12/06 07:11:46;;;;;;;36.50;16.58;;;;;;;;;;6210765;28;20046;-60
2021/12/06 07:14:47;;;;;;;40.28;18.13;;;;;;;;;;6216406;28;20487;-62
2021/12/06 07:17:48;;;;;;;49.10;19.83;;;;;;;;;;6216881;28;20049;-61
2021/12/06 07:20:48;;;;;;;39.28;18.17;;;;;;;;;;6207091;28;20104;-63
2021/12/06 07:23:50;;;;;;;43.28;19.13;;;;;;;;;;6217596;28;20056;-63
2021/12/06 07:26:50;;;;;;;53.00;22.77;;;;;;;;;;6217398;28;20053;-60
2021/12/06 07:29:51;;;;;;;50.22;22.30;;;;;;;;;;6217060;28;20511;-68
2021/12/06 07:32:52;;;;;;;42.38;19.77;;;;;;;;;;6218051;28;20060;-66
2021/12/06 07:35:53;;;;;;;44.38;18.13;;;;;;;;;;6217087;28;20412;-64
2021/12/06 07:38:54;;;;;;;41.63;18.80;;;;;;;;;;6218057;28;20077;-65
2021/12/06 07:41:54;;;;;;;42.17;18.45;;;;;;;;;;6217362;28;20128;-63
2021/12/06 07:44:55;;;;;;;47.95;20.70;;;;;;;;;;6217427;28;20567;-63
2021/12/06 07:47:56;;;;;;;39.80;20.38;;;;;;;;;;6218484;28;20042;-65
2021/12/06 07:50:59;;;;;;;46.95;20.52;;;;;;;;;;6217380;28;20501;-64
2021/12/06 07:54:02;;;;;;;41.22;20.48;;;;;;;;;;6206880;28;20045;-65
2021/12/06 07:57:03;;;;;;;47.08;21.20;;;;;;;;;;6207551;28;20085;-64
2021/12/06 08:00:09;;;;;;;46.35;20.65;;;;;;;;;;6192102;28;20140;-65
2021/12/06 08:03:12;;;;;;;49.42;21.20;;;;;;;;;;6192654;28;20038;-60
2021/12/06 08:06:13;;;;;;;51.75;22.02;;;;;;;;;;6193988;28;20089;-63
2021/12/06 08:09:14;;;;;;;45.88;22.45;;;;;;;;;;6194223;28;20042;-62
2021/12/06 08:12:15;;;;;;;44.17;21.42;;;;;;;;;;6193222;28;20064;-65
2021/12/06 08:15:16;;;;;;;44.40;22.08;;;;;;;;;;6194022;28;20050;-62
2021/12/06 08:18:18;;;;;;;45.37;20.53;;;;;;;;;;6195123;28;20054;-60
2021/12/06 08:21:20;;;;;;;47.20;20.25;;;;;;;;;;6207600;28;20081;-65
2021/12/06 08:24:21;;;;;;;45.67;21.15;;;;;;;;;;6193526;28;20134;-66
2021/12/06 08:27:22;;;;;;;46.22;20.40;;;;;;;;;;6192820;28;20127;-61
2021/12/06 08:30:24;;;;;;;45.00;20.27;;;;;;;;;;6192093;28;20062;-61
2021/12/06 08:33:26;;;;;;;41.55;20.33;;;;;;;;;;6196666;28;20058;-65
2021/12/06 08:36:27;;;;;;;44.40;21.25;;;;;;;;;;6196321;28;20069;-60
2021/12/06 08:39:28;;;;;;;50.75;21.20;;;;;;;;;;6208111;28;20065;-64
2021/12/06 08:42:28;;;;;;;49.30;21.98;;;;;;;;;;6200541;28;20069;-66
2021/12/06 08:45:30;;;;;;;46.55;21.50;;;;;;;;;;6199316;28;20061;-68
2021/12/06 08:48:33;;;;;;;53.15;22.27;;;;;;;;;;6200406;28;20065;-65
2021/12/06 08:51:44;;;;;;;52.90;22.60;;;;;;;;;;6207848;28;20108;-63
2021/12/06 08:54:44;;;;;;;51.30;23.52;;;;;;;;;;6207160;28;20050;-60
2021/12/06 08:57:45;;;;;;;52.67;24.15;;;;;;;;;;6202382;28;20421;-60
2021/12/06 09:00:47;;;;;;;50.03;24.50;;;;;;;;;;6192407;28;20148;-65
2021/12/06 09:03:48;;;;;;;57.80;25.97;;;;;;;;;;6210744;28;20076;-65
2021/12/06 09:06:51;;;;;;;59.78;26.77;;;;;;;;;;6201232;28;20057;-64
2021/12/06 09:09:56;;;;;;;56.67;25.67;;;;;;;;;;6196723;28;20073;-63
2021/12/06 09:12:57;;;;;;;55.67;25.08;;;;;;;;;;6208908;28;20485;-63
2021/12/06 09:16:01;;;;;;;66.32;31.92;;;;;;;;;;6201468;28;20115;-61
2021/12/06 09:19:04;;;;;;;56.33;26.30;;;;;;;;;;6196220;28;20515;-61
2021/12/06 09:22:05;;;;;;;57.95;26.08;;;;;;;;;;6200772;28;20076;-62
2021/12/06 09:25:08;;;;;;;56.40;25.67;;;;;;;;;;6201502;28;20042;-62
2021/12/06 09:28:09;;;;;;;58.28;25.48;;;;;;;;;;6213353;28;20129;-62
2021/12/06 09:31:10;;;;;;;50.92;24.77;;;;;;;;;;6196480;28;20074;-62
2021/12/06 09:34:11;;;;;;;55.70;24.95;;;;;;;;;;6197575;28;20064;-62
2021/12/06 09:37:12;;;;;;;57.22;25.80;;;;;;;;;;6198049;28;20069;-61
2021/12/06 09:40:17;;;;;;;60.03;25.45;;;;;;;;;;6200493;28;20072;-62
2021/12/06 09:43:18;;;;;;;53.42;26.70;;;;;;;;;;6199378;28;20051;-61
2021/12/06 09:46:20;;;;;;;59.03;25.15;;;;;;;;;;6191863;28;20062;-62
2021/12/06 09:49:22;;;;;;;55.73;26.23;;;;;;;;;;6206659;28;20058;-60
2021/12/06 09:52:23;;;;;;;52.38;23.13;;;;;;;;;;6201535;28;20054;-63
2021/12/06 09:55:25;;;;;;;49.65;22.48;;;;;;;;;;6216933;28;20153;-64
2021/12/06 09:58:27;;;;;;;49.45;21.85;;;;;;;;;;6219086;28;20525;-61
2021/12/06 10:01:34;;;;;;;51.35;23.00;;;;;;;;;;6203284;28;20050;-62
2021/12/06 10:04:40;;;;;;;44.58;20.65;;;;;;;;;;6198563;28;20528;-62
2021/12/06 10:07:40;;;;;;;49.47;20.83;;;;;;;;;;6210362;28;20050;-63
2021/12/06 10:10:42;;;;;;;46.25;22.02;;;;;;;;;;6213959;28;20124;-62
2021/12/06 10:13:43;;;;;;;51.42;22.05;;;;;;;;;;6206253;28;20092;-61
2021/12/06 10:16:44;;;;;;;51.05;23.60;;;;;;;;;;6194910;28;20043;-63
2021/12/06 10:19:47;;;;;;;52.58;24.00;;;;;;;;;;6204354;28;20046;-63
2021/12/06 10:22:50;;;;;;;54.45;24.65;;;;;;;;;;6214980;28;21114;-64
2021/12/06 10:25:52;;;;;;;51.65;24.52;;;;;;;;;;6197996;28;20101;-62
2021/12/06 10:29:03;;;;;;;55.67;24.88;;;;;;;;;;6201804;28;20066;-63
2021/12/06 10:32:17;;;;;;;46.38;21.60;;;;;;;;;;6201868;28;20056;-64
2021/12/06 10:35:17;;;;;;;46.40;22.02;;;;;;;;;;6209166;28;20053;-62
2021/12/06 10:38:21;;;;;;;49.58;24.45;;;;;;;;;;6212591;28;20054;-62
2021/12/06 10:41:25;;;;;;;53.10;24.83;;;;;;;;;;6214221;28;20082;-62
2021/12/06 10:44:26;;;;;;;52.33;24.23;;;;;;;;;;6207088;28;20050;-64
2021/12/06 10:47:27;;;;;;;49.20;23.95;;;;;;;;;;6196889;28;20113;-65
2021/12/06 10:50:28;;;;;;;52.97;25.42;;;;;;;;;;6212520;28;20485;-62
2021/12/06 10:53:40;;;;;;;58.67;28.52;;;;;;;;;;6216723;28;20132;-64
2021/12/06 10:56:44;;;;;;;;;;;;;;;;;;6215225;28;20073;-63
2021/12/06 10:59:45;;;;;;;66.07;30.20;;;;;;;;;;6215963;28;20022;-62
2021/12/06 11:02:50;;;;;;;65.57;30.10;;;;;;;;;;6217619;28;20053;-63
2021/12/06 11:05:55;;;;;;;66.75;30.20;;;;;;;;;;6206931;28;20100;-61
2021/12/06 11:08:58;;;;;;;63.42;29.13;;;;;;;;;;6208714;28;20378;-61
2021/12/06 11:12:02;;;;;;;57.03;27.83;;;;;;;;;;6193999;28;20081;-62
2021/12/06 11:15:12;;;;;;;52.88;27.15;;;;;;;;;;6194825;28;20077;-64
2021/12/06 11:18:13;;;;;;;61.75;29.67;;;;;;;;;;6196683;28;20046;-62
2021/12/06 11:21:33;;;;;;;56.00;26.60;;;;;;;;;;6193866;28;20476;-61
2021/12/06 11:24:48;;;;;;;54.90;27.15;;;;;;;;;;6194462;28;20049;-62
2021/12/06 11:27:49;;;;;;;52.45;25.80;;;;;;;;;;6216986;28;20050;-62
2021/12/06 11:30:58;;;;;;;52.75;25.75;;;;;;;;;;6191885;28;20222;-61
2021/12/06 11:34:02;;;;;;;51.92;26.00;;;;;;;;;;6195995;28;20050;-61
2021/12/06 11:37:10;;;;;;;48.92;24.90;;;;;;;;;;6196916;28;20124;-65
2021/12/06 11:40:17;;;;;;;50.13;25.65;;;;;;;;;;6191200;28;20383;-64
2021/12/06 11:43:18;;;;;;;46.45;24.02;;;;;;;;;;6195253;28;20048;-62
2021/12/06 11:46:30;;;;;;;49.70;23.48;;;;;;;;;;6196999;28;20142;-64
2021/12/06 11:49:35;;;;;;;50.03;24.33;;;;;;;;;;6194908;28;20956;-63
2021/12/06 11:52:36;;;;;;;47.88;22.83;;;;;;;;;;6191935;28;20048;-66
2021/12/06 11:55:44;;;;;;;44.97;23.40;;;;;;;;;;6192974;28;20437;-64
2021/12/06 11:58:54;;;;;;;46.20;21.95;;;;;;;;;;6193994;28;20128;-61
2021/12/06 12:01:55;;;;;;;40.75;21.58;;;;;;;;;;6195042;28;20050;-62
2021/12/06 12:05:18;;;;;;;45.70;22.13;;;;;;;;;;6191205;28;20502;-62
2021/12/06 12:08:19;;;;;;;44.10;22.15;;;;;;;;;;6197127;28;20303;-62
2021/12/06 12:11:19;;;;;;;45.42;23.67;;;;;;;;;;6212604;28;20200;-62
2021/12/06 12:14:30;;;;;;;50.75;23.85;;;;;;;;;;6209488;28;20058;-63
2021/12/06 12:17:34;;;;;;;51.10;23.42;;;;;;;;;;6215450;28;20642;-63
2021/12/06 12:20:36;;;;;;;40.33;21.35;;;;;;;;;;6200689;28;20112;-64
2021/12/06 12:23:38;;;;;;;46.22;22.30;;;;;;;;;;6195870;28;20084;-62
2021/12/06 12:26:53;;;;;;;42.83;21.38;;;;;;;;;;6199005;28;20057;-62
2021/12/06 12:29:59;;;;;;;39.17;20.15;;;;;;;;;;6210770;28;20057;-63
2021/12/06 12:33:02;;;;;;;44.97;21.05;;;;;;;;;;6211177;28;20074;-62
2021/12/06 12:36:16;;;;;;;46.10;22.10;;;;;;;;;;6211886;28;20092;-62
2021/12/06 12:39:19;;;;;;;39.03;19.45;;;;;;;;;;6208980;28;20510;-62
2021/12/06 12:42:20;;;;;;;37.15;18.98;;;;;;;;;;6201651;28;20046;-62
2021/12/06 12:45:22;;;;;;;39.22;19.67;;;;;;;;;;6202559;28;20493;-63
2021/12/06 12:48:26;;;;;;;38.25;19.33;;;;;;;;;;6183041;28;20060;-61
2021/12/06 12:51:37;;;;;;;35.92;18.88;;;;;;;;;;6196760;28;20054;-62
2021/12/06 12:54:43;;;;;;;38.22;18.75;;;;;;;;;;6191903;28;20054;-62
2021/12/06 12:57:43;;;;;;;37.25;19.20;;;;;;;;;;6200836;28;20042;-61
2021/12/06 13:00:49;;;;;;;37.08;18.20;;;;;;;;;;6191388;28;20088;-62
2021/12/06 13:03:54;;;;;;;38.38;17.80;;;;;;;;;;6192531;28;20401;-63
2021/12/06 13:07:13;;;;;;;36.42;17.90;;;;;;;;;;6191336;28;20046;-62
2021/12/06 13:10:23;;;;;;;40.20;19.70;;;;;;;;;;6188021;28;20058;-63
2021/12/06 13:13:44;;;;;;;37.85;18.95;;;;;;;;;;6194450;28;20069;-66
2021/12/06 13:16:57;;;;;;;35.72;18.77;;;;;;;;;;6196793;28;20059;-64
2021/12/06 13:20:13;;;;;;;38.33;19.13;;;;;;;;;;6191355;28;20058;-62
2021/12/06 13:23:14;;;;;;;41.17;19.42;;;;;;;;;;6188476;28;20112;-61
2021/12/06 13:26:14;;;;;;;41.10;20.17;;;;;;;;;;6189936;28;20184;-65
2021/12/06 13:29:26;;;;;;;38.30;20.25;;;;;;;;;;6193139;28;20069;-64
2021/12/06 13:32:29;;;;;;;38.67;19.90;;;;;;;;;;6195774;28;20062;-62
2021/12/06 13:35:48;;;;;;;;;;;;;;;;;;6189982;28;20054;-62
2021/12/06 13:38:49;;;;;;;44.83;20.33;;;;;;;;;;6195860;28;19925;-65
2021/12/06 13:41:50;;;;;;;46.33;20.87;;;;;;;;;;6197541;28;20096;-62
2021/12/06 13:44:56;;;;;;;40.50;20.00;;;;;;;;;;6186616;28;20058;-61
2021/12/06 13:48:10;;;;;;;38.38;19.33;;;;;;;;;;6192985;28;20054;-64
2021/12/06 13:51:45;;;;;;;41.78;20.27;;;;;;;;;;6187738;28;20495;-65
2021/12/06 13:54:49;;;;;;;38.13;18.92;;;;;;;;;;6181804;28;20046;-62
2021/12/06 13:57:53;;;;;;;33.03;17.08;;;;;;;;;;6184951;28;21561;-65
2021/12/06 14:00:56;;;;;;;37.65;17.42;;;;;;;;;;6193529;28;20124;-64
2021/12/06 14:03:57;;;;;;;36.17;18.60;;;;;;;;;;6188259;28;20137;-64
2021/12/06 14:06:58;;;;;;;33.97;17.58;;;;;;;;;;6191464;28;20066;-65
2021/12/06 14:10:00;;;;;;;36.95;18.80;;;;;;;;;;6187799;28;20425;-63
2021/12/06 14:13:04;;;;;;;39.95;19.48;;;;;;;;;;6192578;28;20073;-62
2021/12/06 14:16:08;;;;;;;35.53;18.15;;;;;;;;;;6187092;28;20058;-62
2021/12/06 14:19:13;;;;;;;40.30;19.10;;;;;;;;;;6201192;28;20133;-64
2021/12/06 14:22:16;;;;;;;35.47;17.75;;;;;;;;;;6195990;28;20057;-63
2021/12/06 14:25:19;;;;;;;36.33;18.35;;;;;;;;;;6190594;28;20058;-62
2021/12/06 14:28:21;;;;;;;36.15;17.77;;;;;;;;;;6190887;28;20088;-61
2021/12/06 14:31:23;;;;;;;;;;;;;;;;;;6198424;28;20689;-61
2021/12/06 14:34:29;;;;;;;40.10;17.88;;;;;;;;;;6201946;28;20482;-67
2021/12/06 14:37:29;;;;;;;38.83;18.50;;;;;;;;;;6193174;28;20850;-63
2021/12/06 14:40:30;;;;;;;39.92;18.48;;;;;;;;;;6198828;28;20141;-68
2021/12/06 14:43:31;;;;;;;38.38;19.33;;;;;;;;;;6198029;28;20054;-63
2021/12/06 14:46:32;;;;;;;43.88;21.08;;;;;;;;;;6194631;28;20058;-63
2021/12/06 14:49:33;;;;;;;39.42;19.15;;;;;;;;;;6198274;28;20587;-68
2021/12/06 14:52:39;;;;;;;39.45;19.00;;;;;;;;;;6197904;28;20144;-64
2021/12/06 14:59:02;;;;;;;39.70;17.95;;;;;;;;;;6195190;28;20162;-63
2021/12/06 15:02:03;;;;;;;39.40;19.00;;;;;;;;;;6199506;28;20055;-62
2021/12/06 15:05:05;;;;;;;35.60;17.85;;;;;;;;;;6197664;28;20088;-63
2021/12/06 15:08:05;;;;;;;35.25;19.05;;;;;;;;;;6198791;28;20518;-66
2021/12/06 15:11:18;;;;;;;39.80;19.40;;;;;;;;;;6192936;28;20149;-65
2021/12/06 15:14:19;;;;;;;38.70;19.02;;;;;;;;;;6200009;28;20058;-64
2021/12/06 15:17:20;;;;;;;40.00;19.83;;;;;;;;;;6195142;28;20149;-63
2021/12/06 15:20:26;;;;;;;40.88;20.05;;;;;;;;;;6197901;28;20053;-68
2021/12/06 15:23:38;;;;;;;38.22;20.02;;;;;;;;;;6196043;28;20136;-64
2021/12/06 15:26:45;;;;;;;41.33;21.25;;;;;;;;;;6195922;28;20469;-61
2021/12/06 15:29:48;;;;;;;40.67;22.10;;;;;;;;;;6197573;28;20125;-64
2021/12/06 15:32:52;;;;;;;43.65;22.63;;;;;;;;;;6190628;28;20058;-62
2021/12/06 15:35:57;;;;;;;47.20;21.73;;;;;;;;;;6197051;28;20100;-62
2021/12/06 15:39:06;;;;;;;46.97;22.35;;;;;;;;;;6192613;28;20081;-61
2021/12/06 15:42:12;;;;;;;45.03;21.27;;;;;;;;;;6190742;28;20108;-61
2021/12/06 15:45:14;;;;;;;39.55;20.88;;;;;;;;;;6194166;28;20060;-63
2021/12/06 15:48:16;;;;;;;42.05;21.27;;;;;;;;;;6192000;28;20062;-62
2021/12/06 15:51:20;;;;;;;38.47;20.42;;;;;;;;;;6193432;28;20140;-66
2021/12/06 15:54:25;;;;;;;43.80;21.38;;;;;;;;;;6196739;28;20511;-65
2021/12/06 15:57:29;;;;;;;41.42;18.70;;;;;;;;;;6188649;28;20060;-63
2021/12/06 16:00:35;;;;;;;34.30;17.38;;;;;;;;;;6193317;28;21619;-65
2021/12/06 16:03:40;;;;;;;40.85;18.15;;;;;;;;;;6194494;28;20038;-62
2021/12/06 16:06:41;;;;;;;36.40;18.50;;;;;;;;;;6190732;28;20049;-62
2021/12/06 16:09:41;;;;;;;37.25;17.17;;;;;;;;;;6192614;28;20100;-63
2021/12/06 16:12:55;;;;;;;38.35;17.50;;;;;;;;;;6194023;28;20058;-60
2021/12/06 16:15:59;;;;;;;39.05;17.40;;;;;;;;;;6187445;28;20425;-68
2021/12/06 16:19:00;;;;;;;34.63;18.17;;;;;;;;;;6194584;28;20519;-60
2021/12/06 16:22:02;;;;;;;36.05;18.73;;;;;;;;;;6193394;28;20049;-64
2021/12/06 16:25:04;;;;;;;36.15;17.98;;;;;;;;;;6194133;28;20608;-63
2021/12/06 16:28:05;;;;;;;32.75;17.63;;;;;;;;;;6194600;28;20149;-65
2021/12/06 16:31:06;;;;;;;34.28;17.30;;;;;;;;;;6195668;28;20467;-66
2021/12/06 16:34:09;;;;;;;40.83;19.13;;;;;;;;;;6192602;28;20137;-65
2021/12/06 16:37:17;;;;;;;38.70;18.48;;;;;;;;;;6189561;28;20125;-65
2021/12/06 16:40:34;;;;;;;35.63;17.90;;;;;;;;;;6191442;28;20088;-64
2021/12/06 16:43:34;;;;;;;34.95;17.17;;;;;;;;;;6192295;28;20052;-66
2021/12/06 16:46:44;;;;;;;35.78;18.10;;;;;;;;;;6188697;28;20050;-69
2021/12/06 16:50:13;;;;;;;36.70;18.80;;;;;;;;;;6195425;28;20171;-65
2021/12/06 16:53:16;;;;;;;35.55;18.80;;;;;;;;;;6191685;28;20069;-63
2021/12/06 16:56:19;;;;;;;42.25;20.95;;;;;;;;;;6187877;28;20047;-65
2021/12/06 16:59:20;;;;;;;37.33;18.92;;;;;;;;;;6191087;28;20117;-64
2021/12/06 17:02:25;;;;;;;42.95;19.90;;;;;;;;;;6193992;28;20053;-63
2021/12/06 17:05:34;;;;;;;39.40;20.00;;;;;;;;;;6187518;28;20713;-64
2021/12/06 17:08:38;;;;;;;42.10;19.60;;;;;;;;;;6185858;28;20050;-63
2021/12/06 17:11:44;;;;;;;39.42;20.02;;;;;;;;;;6187300;28;20481;-64
2021/12/06 17:14:47;;;;;;;63.45;20.25;;;;;;;;;;6190689;28;20153;-64
2021/12/06 17:17:51;;;;;;;40.08;19.42;;;;;;;;;;6187520;28;20041;-64
2021/12/06 17:20:59;;;;;;;41.28;20.45;;;;;;;;;;6187705;28;21178;-62
2021/12/06 17:24:00;;;;;;;40.55;19.17;;;;;;;;;;6191318;28;21314;-63
2021/12/06 17:27:02;;;;;;;40.47;18.63;;;;;;;;;;6184489;28;20054;-62
2021/12/06 17:30:07;;;;;;;43.70;22.23;;;;;;;;;;6187740;28;20173;-62
2021/12/06 17:33:11;;;;;;;44.35;22.77;;;;;;;;;;6198232;28;20516;-62
2021/12/06 17:36:16;;;;;;;45.08;22.40;;;;;;;;;;6195047;28;20046;-65
2021/12/06 17:39:21;;;;;;;48.80;23.02;;;;;;;;;;6191317;28;20141;-63
2021/12/06 17:42:22;;;;;;;43.92;20.30;;;;;;;;;;6190941;28;20622;-62
2021/12/06 17:45:23;;;;;;;51.47;24.40;;;;;;;;;;6189121;28;20128;-63
2021/12/06 17:48:24;;;;;;;46.80;20.65;;;;;;;;;;6193266;28;20706;-64
2021/12/06 17:51:25;;;;;;;49.28;22.13;;;;;;;;;;6196285;28;20058;-63
2021/12/06 17:54:29;;;;;;;43.15;21.15;;;;;;;;;;6193750;28;20053;-64
2021/12/06 17:57:32;;;;;;;36.55;18.45;;;;;;;;;;6193444;28;20181;-61
2021/12/06 18:00:34;;;;;;;47.13;21.73;;;;;;;;;;6202733;28;20145;-62
2021/12/06 18:03:36;;;;;;;53.90;24.70;;;;;;;;;;6193170;28;20050;-62